sensor_id;sensor_type;location;lat;lon;timestamp;temperature;humidity
30371;DHT22;17164;48.590;11.410;2022-09-03T00:00:09;14.30;99.90
30371;DHT22;17164;48.590;11.410;2022-09-03T00:02:52;14.30;99.90
30371;DHT22;17164;48.590;11.410;2022-09-03T00:10:56;14.30;99.90
30371;DHT22;17164;48.590;11.410;2022-09-03T00:13:32;14.30;99.90
30371;DHT22;17164;48.590;11.410;2022-09-03T00:16:00;14.30;99.90
30371;DHT22;17164;48.590;11.410;2022-09-03T00:18:31;14.30;99.90
30371;DHT22;17164;48.590;11.410;2022-09-03T00:21:02;14.30;99.90
30371;DHT22;17164;48.590;11.410;2022-09-03T00:23:34;14.30;99.90
30371;DHT22;17164;48.590;11.410;2022-09-03T00:28:58;14.40;99.90
30371;DHT22;17164;48.590;11.410;2022-09-03T00:31:32;14.40;99.90
30371;DHT22;17164;48.590;11.410;2022-09-03T00:34:11;14.40;99.90
30371;DHT22;17164;48.590;11.410;2022-09-03T00:36:43;14.40;99.90
30371;DHT22;17164;48.590;11.410;2022-09-03T00:39:16;14.40;99.90
30371;DHT22;17164;48.590;11.410;2022-09-03T00:44:32;14.40;99.90
30371;DHT22;17164;48.590;11.410;2022-09-03T00:50:14;14.50;99.90
30371;DHT22;17164;48.590;11.410;2022-09-03T00:57:55;14.60;99.90
30371;DHT22;17164;48.590;11.410;2022-09-03T01:00:22;14.60;99.90
30371;DHT22;17164;48.590;11.410;2022-09-03T01:05:56;14.60;99.90
30371;DHT22;17164;48.590;11.410;2022-09-03T01:11:55;14.60;99.90
30371;DHT22;17164;48.590;11.410;2022-09-03T01:17:00;14.60;99.90
30371;DHT22;17164;48.590;11.410;2022-09-03T01:22:23;14.60;99.90
30371;DHT22;17164;48.590;11.410;2022-09-03T01:27:57;14.60;99.90
30371;DHT22;17164;48.590;11.410;2022-09-03T01:30:24;14.60;99.90
30371;DHT22;17164;48.590;11.410;2022-09-03T01:41:17;14.60;99.90
30371;DHT22;17164;48.590;11.410;2022-09-03T01:46:41;14.60;99.90
30371;DHT22;17164;48.590;11.410;2022-09-03T02:02:28;14.40;99.90
30371;DHT22;17164;48.590;11.410;2022-09-03T02:05:05;14.40;99.90
30371;DHT22;17164;48.590;11.410;2022-09-03T02:07:45;14.30;99.90
30371;DHT22;17164;48.590;11.410;2022-09-03T02:10:18;14.30;99.90
30371;DHT22;17164;48.590;11.410;2022-09-03T02:12:48;14.30;99.90
30371;DHT22;17164;48.590;11.410;2022-09-03T02:15:19;14.20;99.90
30371;DHT22;17164;48.590;11.410;2022-09-03T02:17:47;14.20;99.90
30371;DHT22;17164;48.590;11.410;2022-09-03T02:20:20;14.20;99.90
30371;DHT22;17164;48.590;11.410;2022-09-03T02:22:47;14.20;99.90
30371;DHT22;17164;48.590;11.410;2022-09-03T02:25:14;14.20;99.90
30371;DHT22;17164;48.590;11.410;2022-09-03T02:27:40;14.20;99.90
30371;DHT22;17164;48.590;11.410;2022-09-03T02:30:07;14.20;99.90
30371;DHT22;17164;48.590;11.410;2022-09-03T02:32:33;14.20;99.90
30371;DHT22;17164;48.590;11.410;2022-09-03T02:34:58;14.20;99.90
30371;DHT22;17164;48.590;11.410;2022-09-03T02:37:24;14.20;99.90
30371;DHT22;17164;48.590;11.410;2022-09-03T02:39:50;14.20;99.90
30371;DHT22;17164;48.590;11.410;2022-09-03T02:42:18;14.20;99.90
30371;DHT22;17164;48.590;11.410;2022-09-03T02:44:47;14.20;99.90
30371;DHT22;17164;48.590;11.410;2022-09-03T02:47:15;14.20;99.90
30371;DHT22;17164;48.590;11.410;2022-09-03T02:49:40;14.20;99.90
30371;DHT22;17164;48.590;11.410;2022-09-03T02:52:09;14.20;99.90
30371;DHT22;17164;48.590;11.410;2022-09-03T02:54:37;14.20;99.90
30371;DHT22;17164;48.590;11.410;2022-09-03T02:57:11;14.20;99.90
30371;DHT22;17164;48.590;11.410;2022-09-03T02:59:36;14.20;99.90
30371;DHT22;17164;48.590;11.410;2022-09-03T03:02:04;14.10;99.90
30371;DHT22;17164;48.590;11.410;2022-09-03T03:04:29;14.10;99.90
30371;DHT22;17164;48.590;11.410;2022-09-03T03:06:55;14.10;99.90
30371;DHT22;17164;48.590;11.410;2022-09-03T03:09:21;14.10;99.90
30371;DHT22;17164;48.590;11.410;2022-09-03T03:11:46;14.10;99.90
30371;DHT22;17164;48.590;11.410;2022-09-03T03:14:14;14.00;99.90
30371;DHT22;17164;48.590;11.410;2022-09-03T03:16:40;13.90;99.90
30371;DHT22;17164;48.590;11.410;2022-09-03T03:19:06;13.90;99.90
30371;DHT22;17164;48.590;11.410;2022-09-03T03:21:31;13.90;99.90
30371;DHT22;17164;48.590;11.410;2022-09-03T03:23:57;13.80;99.90
30371;DHT22;17164;48.590;11.410;2022-09-03T03:26:23;13.80;99.90
30371;DHT22;17164;48.590;11.410;2022-09-03T03:28:50;13.70;99.90
30371;DHT22;17164;48.590;11.410;2022-09-03T03:31:21;13.70;99.90
30371;DHT22;17164;48.590;11.410;2022-09-03T03:33:58;13.70;99.90
30371;DHT22;17164;48.590;11.410;2022-09-03T03:36:26;13.70;99.90
30371;DHT22;17164;48.590;11.410;2022-09-03T03:38:54;13.60;99.90
30371;DHT22;17164;48.590;11.410;2022-09-03T03:41:25;13.60;99.90
30371;DHT22;17164;48.590;11.410;2022-09-03T03:43:54;13.50;99.90
30371;DHT22;17164;48.590;11.410;2022-09-03T03:46:22;13.50;99.90
30371;DHT22;17164;48.590;11.410;2022-09-03T03:48:48;13.50;99.90
30371;DHT22;17164;48.590;11.410;2022-09-03T03:51:14;13.40;99.90
30371;DHT22;17164;48.590;11.410;2022-09-03T03:53:39;13.40;99.90
30371;DHT22;17164;48.590;11.410;2022-09-03T03:56:07;13.40;99.90
30371;DHT22;17164;48.590;11.410;2022-09-03T03:58:34;13.40;99.90
30371;DHT22;17164;48.590;11.410;2022-09-03T04:01:06;13.30;99.90
30371;DHT22;17164;48.590;11.410;2022-09-03T04:03:33;13.40;99.90
30371;DHT22;17164;48.590;11.410;2022-09-03T04:05:59;13.30;99.90
30371;DHT22;17164;48.590;11.410;2022-09-03T04:08:25;13.30;99.90
30371;DHT22;17164;48.590;11.410;2022-09-03T04:10:51;13.30;99.90
30371;DHT22;17164;48.590;11.410;2022-09-03T04:13:17;13.30;99.90
30371;DHT22;17164;48.590;11.410;2022-09-03T04:15:44;13.30;99.90
30371;DHT22;17164;48.590;11.410;2022-09-03T04:18:10;13.40;99.90
30371;DHT22;17164;48.590;11.410;2022-09-03T04:20:36;13.40;99.90
30371;DHT22;17164;48.590;11.410;2022-09-03T04:23:02;13.40;99.90
30371;DHT22;17164;48.590;11.410;2022-09-03T04:25:28;13.40;99.90
30371;DHT22;17164;48.590;11.410;2022-09-03T04:27:53;13.40;99.90
30371;DHT22;17164;48.590;11.410;2022-09-03T04:30:19;13.40;99.90
30371;DHT22;17164;48.590;11.410;2022-09-03T04:32:49;13.40;99.90
30371;DHT22;17164;48.590;11.410;2022-09-03T04:35:18;13.30;99.90
30371;DHT22;17164;48.590;11.410;2022-09-03T04:37:45;13.30;99.90
30371;DHT22;17164;48.590;11.410;2022-09-03T04:40:11;13.30;99.90
30371;DHT22;17164;48.590;11.410;2022-09-03T04:42:36;13.40;99.90
30371;DHT22;17164;48.590;11.410;2022-09-03T04:45:02;13.40;99.90
30371;DHT22;17164;48.590;11.410;2022-09-03T04:47:28;13.40;99.90
30371;DHT22;17164;48.590;11.410;2022-09-03T04:49:54;13.40;99.90
30371;DHT22;17164;48.590;11.410;2022-09-03T04:52:20;13.40;99.90
30371;DHT22;17164;48.590;11.410;2022-09-03T04:54:45;13.40;99.90
30371;DHT22;17164;48.590;11.410;2022-09-03T04:57:11;13.40;99.90
30371;DHT22;17164;48.590;11.410;2022-09-03T04:59:37;13.40;99.90
30371;DHT22;17164;48.590;11.410;2022-09-03T05:02:03;13.40;99.90
30371;DHT22;17164;48.590;11.410;2022-09-03T05:04:28;13.40;99.90
30371;DHT22;17164;48.590;11.410;2022-09-03T05:06:54;13.40;99.90
30371;DHT22;17164;48.590;11.410;2022-09-03T05:09:19;13.40;99.90
30371;DHT22;17164;48.590;11.410;2022-09-03T05:11:45;13.50;99.90
30371;DHT22;17164;48.590;11.410;2022-09-03T05:14:11;13.50;99.90
30371;DHT22;17164;48.590;11.410;2022-09-03T05:16:37;13.50;99.90
30371;DHT22;17164;48.590;11.410;2022-09-03T05:19:03;13.50;99.90
30371;DHT22;17164;48.590;11.410;2022-09-03T05:21:30;13.60;99.90
30371;DHT22;17164;48.590;11.410;2022-09-03T05:23:58;13.60;99.90
30371;DHT22;17164;48.590;11.410;2022-09-03T05:26:26;13.70;99.90
30371;DHT22;17164;48.590;11.410;2022-09-03T05:28:57;13.70;99.90
30371;DHT22;17164;48.590;11.410;2022-09-03T05:31:25;13.70;99.90
30371;DHT22;17164;48.590;11.410;2022-09-03T05:33:54;13.80;99.90
30371;DHT22;17164;48.590;11.410;2022-09-03T05:36:23;13.80;99.90
30371;DHT22;17164;48.590;11.410;2022-09-03T05:38:49;13.80;99.90
30371;DHT22;17164;48.590;11.410;2022-09-03T05:41:16;13.90;99.90
30371;DHT22;17164;48.590;11.410;2022-09-03T05:43:42;13.90;99.90
30371;DHT22;17164;48.590;11.410;2022-09-03T05:46:14;13.90;99.90
30371;DHT22;17164;48.590;11.410;2022-09-03T05:48:43;14.00;99.90
30371;DHT22;17164;48.590;11.410;2022-09-03T05:51:16;14.00;99.90
30371;DHT22;17164;48.590;11.410;2022-09-03T05:53:44;14.00;99.90
30371;DHT22;17164;48.590;11.410;2022-09-03T05:56:12;14.10;99.90
30371;DHT22;17164;48.590;11.410;2022-09-03T05:58:40;14.20;99.90
30371;DHT22;17164;48.590;11.410;2022-09-03T06:01:20;14.20;99.90
30371;DHT22;17164;48.590;11.410;2022-09-03T06:03:59;14.30;99.90
30371;DHT22;17164;48.590;11.410;2022-09-03T06:06:26;14.30;99.90
30371;DHT22;17164;48.590;11.410;2022-09-03T06:08:57;14.40;99.90
30371;DHT22;17164;48.590;11.410;2022-09-03T06:11:24;14.40;99.90
30371;DHT22;17164;48.590;11.410;2022-09-03T06:13:55;14.50;99.90
30371;DHT22;17164;48.590;11.410;2022-09-03T06:16:22;14.50;99.90
30371;DHT22;17164;48.590;11.410;2022-09-03T06:18:48;14.60;99.90
30371;DHT22;17164;48.590;11.410;2022-09-03T06:21:14;14.60;99.90
30371;DHT22;17164;48.590;11.410;2022-09-03T06:23:40;14.70;99.90
30371;DHT22;17164;48.590;11.410;2022-09-03T06:26:11;14.70;99.90
30371;DHT22;17164;48.590;11.410;2022-09-03T06:28:39;14.90;99.90
30371;DHT22;17164;48.590;11.410;2022-09-03T06:31:09;14.90;99.90
30371;DHT22;17164;48.590;11.410;2022-09-03T06:33:37;15.00;99.90
30371;DHT22;17164;48.590;11.410;2022-09-03T06:36:05;15.10;99.90
30371;DHT22;17164;48.590;11.410;2022-09-03T06:38:33;15.10;99.90
30371;DHT22;17164;48.590;11.410;2022-09-03T06:41:23;15.20;99.90
30371;DHT22;17164;48.590;11.410;2022-09-03T06:43:51;15.20;99.90
30371;DHT22;17164;48.590;11.410;2022-09-03T06:46:20;15.30;99.90
30371;DHT22;17164;48.590;11.410;2022-09-03T06:48:46;15.40;99.90
30371;DHT22;17164;48.590;11.410;2022-09-03T06:51:15;15.40;99.90
30371;DHT22;17164;48.590;11.410;2022-09-03T06:53:43;15.40;99.90
30371;DHT22;17164;48.590;11.410;2022-09-03T06:56:11;15.40;99.90
30371;DHT22;17164;48.590;11.410;2022-09-03T06:58:39;15.40;99.90
30371;DHT22;17164;48.590;11.410;2022-09-03T07:01:11;15.40;99.90
30371;DHT22;17164;48.590;11.410;2022-09-03T07:03:39;15.40;99.90
30371;DHT22;17164;48.590;11.410;2022-09-03T07:06:07;15.40;99.90
30371;DHT22;17164;48.590;11.410;2022-09-03T07:08:33;15.50;99.90
30371;DHT22;17164;48.590;11.410;2022-09-03T07:11:00;15.50;99.90
30371;DHT22;17164;48.590;11.410;2022-09-03T07:13:29;15.50;99.90
30371;DHT22;17164;48.590;11.410;2022-09-03T07:16:03;15.50;99.90
30371;DHT22;17164;48.590;11.410;2022-09-03T07:18:29;15.50;99.90
30371;DHT22;17164;48.590;11.410;2022-09-03T07:21:17;15.50;99.90
30371;DHT22;17164;48.590;11.410;2022-09-03T07:23:43;15.60;99.90
30371;DHT22;17164;48.590;11.410;2022-09-03T07:26:16;15.60;99.90
30371;DHT22;17164;48.590;11.410;2022-09-03T07:28:44;15.60;99.90
30371;DHT22;17164;48.590;11.410;2022-09-03T07:31:13;15.60;99.90
30371;DHT22;17164;48.590;11.410;2022-09-03T07:33:40;15.60;99.90
30371;DHT22;17164;48.590;11.410;2022-09-03T07:36:09;15.60;99.90
30371;DHT22;17164;48.590;11.410;2022-09-03T07:38:35;15.50;99.90
30371;DHT22;17164;48.590;11.410;2022-09-03T07:41:03;15.50;99.90
30371;DHT22;17164;48.590;11.410;2022-09-03T07:43:35;15.50;99.90
30371;DHT22;17164;48.590;11.410;2022-09-03T07:46:01;15.50;99.90
30371;DHT22;17164;48.590;11.410;2022-09-03T07:48:27;15.40;99.90
30371;DHT22;17164;48.590;11.410;2022-09-03T07:51:00;15.40;99.90
30371;DHT22;17164;48.590;11.410;2022-09-03T07:53:27;15.40;99.90
30371;DHT22;17164;48.590;11.410;2022-09-03T07:55:54;15.40;99.90
30371;DHT22;17164;48.590;11.410;2022-09-03T07:58:28;15.40;99.90
30371;DHT22;17164;48.590;11.410;2022-09-03T08:00:53;15.40;99.90
30371;DHT22;17164;48.590;11.410;2022-09-03T08:03:20;15.40;99.90
30371;DHT22;17164;48.590;11.410;2022-09-03T08:05:46;15.40;99.90
30371;DHT22;17164;48.590;11.410;2022-09-03T08:08:12;15.40;99.90
30371;DHT22;17164;48.590;11.410;2022-09-03T08:10:40;15.40;99.90
30371;DHT22;17164;48.590;11.410;2022-09-03T08:13:06;15.50;99.90
30371;DHT22;17164;48.590;11.410;2022-09-03T08:15:32;15.50;99.90
30371;DHT22;17164;48.590;11.410;2022-09-03T08:17:59;15.50;99.90
30371;DHT22;17164;48.590;11.410;2022-09-03T08:20:26;15.50;99.90
30371;DHT22;17164;48.590;11.410;2022-09-03T08:22:52;15.50;99.90
30371;DHT22;17164;48.590;11.410;2022-09-03T08:25:18;15.60;99.90
30371;DHT22;17164;48.590;11.410;2022-09-03T08:27:43;15.60;99.90
30371;DHT22;17164;48.590;11.410;2022-09-03T08:30:09;15.70;99.90
30371;DHT22;17164;48.590;11.410;2022-09-03T08:32:37;15.80;99.90
30371;DHT22;17164;48.590;11.410;2022-09-03T08:35:05;15.80;99.90
30371;DHT22;17164;48.590;11.410;2022-09-03T08:37:31;15.90;99.90
30371;DHT22;17164;48.590;11.410;2022-09-03T08:39:57;16.00;99.90
30371;DHT22;17164;48.590;11.410;2022-09-03T08:44:54;16.10;99.90
30371;DHT22;17164;48.590;11.410;2022-09-03T08:47:41;16.20;99.90
30371;DHT22;17164;48.590;11.410;2022-09-03T08:52:50;16.50;99.90
30371;DHT22;17164;48.590;11.410;2022-09-03T08:58:04;16.70;99.90
30371;DHT22;17164;48.590;11.410;2022-09-03T09:03:33;17.00;99.90
30371;DHT22;17164;48.590;11.410;2022-09-03T09:06:28;17.10;99.90
30371;DHT22;17164;48.590;11.410;2022-09-03T09:18:10;17.50;99.90
30371;DHT22;17164;48.590;11.410;2022-09-03T09:20:44;17.50;99.90
30371;DHT22;17164;48.590;11.410;2022-09-03T09:23:14;17.60;99.90
30371;DHT22;17164;48.590;11.410;2022-09-03T09:25:49;17.70;99.90
30371;DHT22;17164;48.590;11.410;2022-09-03T09:28:23;17.70;99.90
30371;DHT22;17164;48.590;11.410;2022-09-03T09:30:53;17.80;99.90
30371;DHT22;17164;48.590;11.410;2022-09-03T09:33:19;17.90;99.90
30371;DHT22;17164;48.590;11.410;2022-09-03T09:35:45;17.90;99.90
30371;DHT22;17164;48.590;11.410;2022-09-03T09:38:12;17.90;99.90
30371;DHT22;17164;48.590;11.410;2022-09-03T09:40:40;18.00;99.90
30371;DHT22;17164;48.590;11.410;2022-09-03T09:43:13;18.10;99.90
30371;DHT22;17164;48.590;11.410;2022-09-03T09:45:45;18.20;99.90
30371;DHT22;17164;48.590;11.410;2022-09-03T09:50:47;18.50;99.90
30371;DHT22;17164;48.590;11.410;2022-09-03T09:53:12;18.50;99.90
30371;DHT22;17164;48.590;11.410;2022-09-03T09:55:55;18.60;99.90
30371;DHT22;17164;48.590;11.410;2022-09-03T09:58:26;18.60;99.90
30371;DHT22;17164;48.590;11.410;2022-09-03T10:03:29;18.70;99.90
30371;DHT22;17164;48.590;11.410;2022-09-03T10:06:08;18.80;99.90
30371;DHT22;17164;48.590;11.410;2022-09-03T10:09:09;18.90;99.90
30371;DHT22;17164;48.590;11.410;2022-09-03T10:11:37;19.10;99.90
30371;DHT22;17164;48.590;11.410;2022-09-03T10:14:30;19.10;99.90
30371;DHT22;17164;48.590;11.410;2022-09-03T10:25:43;19.10;99.90
30371;DHT22;17164;48.590;11.410;2022-09-03T10:28:20;19.10;99.90
30371;DHT22;17164;48.590;11.410;2022-09-03T10:31:11;19.20;99.90
30371;DHT22;17164;48.590;11.410;2022-09-03T10:33:47;19.20;99.90
30371;DHT22;17164;48.590;11.410;2022-09-03T10:39:14;19.30;99.90
30371;DHT22;17164;48.590;11.410;2022-09-03T10:55:13;19.50;99.90
30371;DHT22;17164;48.590;11.410;2022-09-03T11:00:51;19.40;99.90
30371;DHT22;17164;48.590;11.410;2022-09-03T11:03:34;19.30;99.90
30371;DHT22;17164;48.590;11.410;2022-09-03T11:09:12;19.20;99.90
30371;DHT22;17164;48.590;11.410;2022-09-03T11:11:41;19.20;99.90
30371;DHT22;17164;48.590;11.410;2022-09-03T11:14:11;19.10;99.90
30371;DHT22;17164;48.590;11.410;2022-09-03T11:17:02;19.10;99.90
30371;DHT22;17164;48.590;11.410;2022-09-03T11:19:40;19.10;99.90
30371;DHT22;17164;48.590;11.410;2022-09-03T11:22:13;19.10;99.90
30371;DHT22;17164;48.590;11.410;2022-09-03T11:24:42;19.20;99.90
30371;DHT22;17164;48.590;11.410;2022-09-03T11:32:23;19.50;99.90
30371;DHT22;17164;48.590;11.410;2022-09-03T11:34:52;19.60;99.90
30371;DHT22;17164;48.590;11.410;2022-09-03T11:37:25;19.60;99.90
30371;DHT22;17164;48.590;11.410;2022-09-03T11:42:38;19.70;99.90
30371;DHT22;17164;48.590;11.410;2022-09-03T11:47:58;19.70;99.90
30371;DHT22;17164;48.590;11.410;2022-09-03T11:50:29;19.80;99.90
30371;DHT22;17164;48.590;11.410;2022-09-03T11:53:21;19.70;99.90
30371;DHT22;17164;48.590;11.410;2022-09-03T11:58:31;19.70;99.90
30371;DHT22;17164;48.590;11.410;2022-09-03T12:01:09;19.80;99.90
30371;DHT22;17164;48.590;11.410;2022-09-03T12:03:46;19.80;99.90
30371;DHT22;17164;48.590;11.410;2022-09-03T12:12:26;19.90;99.90
30371;DHT22;17164;48.590;11.410;2022-09-03T12:15:06;19.90;99.90
30371;DHT22;17164;48.590;11.410;2022-09-03T12:17:56;20.10;99.90
30371;DHT22;17164;48.590;11.410;2022-09-03T12:20:42;20.20;99.90
30371;DHT22;17164;48.590;11.410;2022-09-03T12:23:27;20.40;99.90
30371;DHT22;17164;48.590;11.410;2022-09-03T12:25:53;20.60;99.90
30371;DHT22;17164;48.590;11.410;2022-09-03T12:28:21;20.80;99.90
30371;DHT22;17164;48.590;11.410;2022-09-03T12:30:49;20.90;99.90
30371;DHT22;17164;48.590;11.410;2022-09-03T12:33:19;21.10;99.90
30371;DHT22;17164;48.590;11.410;2022-09-03T12:35:56;21.20;99.90
30371;DHT22;17164;48.590;11.410;2022-09-03T12:38:23;21.20;99.90
30371;DHT22;17164;48.590;11.410;2022-09-03T12:40:49;21.30;99.90
30371;DHT22;17164;48.590;11.410;2022-09-03T12:43:16;21.30;99.90
30371;DHT22;17164;48.590;11.410;2022-09-03T12:45:45;21.30;99.90
30371;DHT22;17164;48.590;11.410;2022-09-03T12:48:18;21.30;99.90
30371;DHT22;17164;48.590;11.410;2022-09-03T12:50:46;21.30;99.90
30371;DHT22;17164;48.590;11.410;2022-09-03T12:53:19;21.40;99.90
30371;DHT22;17164;48.590;11.410;2022-09-03T12:55:48;21.40;99.90
30371;DHT22;17164;48.590;11.410;2022-09-03T12:58:32;21.40;99.90
30371;DHT22;17164;48.590;11.410;2022-09-03T13:01:07;21.50;99.90
30371;DHT22;17164;48.590;11.410;2022-09-03T13:03:49;21.50;99.90
30371;DHT22;17164;48.590;11.410;2022-09-03T13:06:20;21.60;99.90
30371;DHT22;17164;48.590;11.410;2022-09-03T13:08:48;21.70;99.90
30371;DHT22;17164;48.590;11.410;2022-09-03T13:11:17;21.80;99.90
30371;DHT22;17164;48.590;11.410;2022-09-03T13:14:03;21.90;99.90
30371;DHT22;17164;48.590;11.410;2022-09-03T13:21:49;22.60;99.90
30371;DHT22;17164;48.590;11.410;2022-09-03T13:24:27;22.70;99.90
30371;DHT22;17164;48.590;11.410;2022-09-03T13:33:19;23.00;99.90
30371;DHT22;17164;48.590;11.410;2022-09-03T13:35:58;22.90;99.90
30371;DHT22;17164;48.590;11.410;2022-09-03T13:38:56;22.70;99.90
30371;DHT22;17164;48.590;11.410;2022-09-03T13:41:32;22.50;99.90
30371;DHT22;17164;48.590;11.410;2022-09-03T13:48:14;22.00;99.90
30371;DHT22;17164;48.590;11.410;2022-09-03T13:50:52;21.90;99.90
30371;DHT22;17164;48.590;11.410;2022-09-03T13:53:35;21.70;99.90
30371;DHT22;17164;48.590;11.410;2022-09-03T13:56:18;21.60;99.90
30371;DHT22;17164;48.590;11.410;2022-09-03T13:58:49;21.40;99.90
30371;DHT22;17164;48.590;11.410;2022-09-03T14:03:54;21.20;99.90
30371;DHT22;17164;48.590;11.410;2022-09-03T14:06:40;21.10;99.90
30371;DHT22;17164;48.590;11.410;2022-09-03T14:09:14;21.00;99.90
30371;DHT22;17164;48.590;11.410;2022-09-03T14:12:02;20.80;99.90
30371;DHT22;17164;48.590;11.410;2022-09-03T14:20:22;20.50;99.90
30371;DHT22;17164;48.590;11.410;2022-09-03T14:22:55;20.50;99.90
30371;DHT22;17164;48.590;11.410;2022-09-03T14:25:24;20.40;99.90
30371;DHT22;17164;48.590;11.410;2022-09-03T14:27:50;20.30;99.90
30371;DHT22;17164;48.590;11.410;2022-09-03T14:35:58;20.20;99.90
30371;DHT22;17164;48.590;11.410;2022-09-03T14:39:25;20.20;99.90
30371;DHT22;17164;48.590;11.410;2022-09-03T14:44:18;20.10;99.90
30371;DHT22;17164;48.590;11.410;2022-09-03T14:47:03;20.10;99.90
30371;DHT22;17164;48.590;11.410;2022-09-03T14:49:45;20.10;99.90
30371;DHT22;17164;48.590;11.410;2022-09-03T15:01:03;20.00;99.90
30371;DHT22;17164;48.590;11.410;2022-09-03T15:03:46;20.00;99.90
30371;DHT22;17164;48.590;11.410;2022-09-03T15:06:23;20.00;99.90
30371;DHT22;17164;48.590;11.410;2022-09-03T15:09:01;20.00;99.90
30371;DHT22;17164;48.590;11.410;2022-09-03T15:11:33;19.90;99.90
30371;DHT22;17164;48.590;11.410;2022-09-03T15:14:03;19.90;99.90
30371;DHT22;17164;48.590;11.410;2022-09-03T15:16:55;19.90;99.90
30371;DHT22;17164;48.590;11.410;2022-09-03T15:19:47;19.90;99.90
30371;DHT22;17164;48.590;11.410;2022-09-03T15:25:18;20.00;99.90
30371;DHT22;17164;48.590;11.410;2022-09-03T15:30:35;20.10;99.90
30371;DHT22;17164;48.590;11.410;2022-09-03T15:36:24;20.10;99.90
30371;DHT22;17164;48.590;11.410;2022-09-03T15:38:58;20.00;99.90
30371;DHT22;17164;48.590;11.410;2022-09-03T15:41:30;19.90;99.90
30371;DHT22;17164;48.590;11.410;2022-09-03T15:43:59;19.90;99.90
30371;DHT22;17164;48.590;11.410;2022-09-03T15:49:18;19.80;99.90
30371;DHT22;17164;48.590;11.410;2022-09-03T15:54:55;19.80;99.90
30371;DHT22;17164;48.590;11.410;2022-09-03T15:57:51;19.80;99.90
30371;DHT22;17164;48.590;11.410;2022-09-03T16:00:19;19.80;99.90
30371;DHT22;17164;48.590;11.410;2022-09-03T16:03:05;19.80;99.90
30371;DHT22;17164;48.590;11.410;2022-09-03T16:05:56;19.70;99.90
30371;DHT22;17164;48.590;11.410;2022-09-03T16:08:40;19.70;99.90
30371;DHT22;17164;48.590;11.410;2022-09-03T16:17:31;19.70;99.90
30371;DHT22;17164;48.590;11.410;2022-09-03T16:20:03;19.60;99.90
30371;DHT22;17164;48.590;11.410;2022-09-03T16:22:42;19.60;99.90
30371;DHT22;17164;48.590;11.410;2022-09-03T16:25:15;20.50;99.90
30371;DHT22;17164;48.590;11.410;2022-09-03T16:30:32;23.30;99.90
30371;DHT22;17164;48.590;11.410;2022-09-03T16:41:17;23.30;99.90
30371;DHT22;17164;48.590;11.410;2022-09-03T16:46:27;22.00;99.90
30371;DHT22;17164;48.590;11.410;2022-09-03T16:54:26;20.90;99.90
30371;DHT22;17164;48.590;11.410;2022-09-03T17:00:14;20.50;99.90
30371;DHT22;17164;48.590;11.410;2022-09-03T17:08:49;20.10;99.90
30371;DHT22;17164;48.590;11.410;2022-09-03T17:14:15;19.90;99.90
30371;DHT22;17164;48.590;11.410;2022-09-03T17:19:52;19.70;99.90
30371;DHT22;17164;48.590;11.410;2022-09-03T17:24:53;19.40;99.90
30371;DHT22;17164;48.590;11.410;2022-09-03T17:31:02;19.20;99.90
30371;DHT22;17164;48.590;11.410;2022-09-03T17:33:35;19.10;99.90
30371;DHT22;17164;48.590;11.410;2022-09-03T17:36:17;19.10;99.90
30371;DHT22;17164;48.590;11.410;2022-09-03T17:42:14;18.90;99.90
30371;DHT22;17164;48.590;11.410;2022-09-03T17:44:57;18.80;99.90
30371;DHT22;17164;48.590;11.410;2022-09-03T17:47:46;18.80;99.90
30371;DHT22;17164;48.590;11.410;2022-09-03T17:50:25;18.60;99.90
30371;DHT22;17164;48.590;11.410;2022-09-03T17:52:57;18.60;99.90
30371;DHT22;17164;48.590;11.410;2022-09-03T17:55:40;18.40;99.90
30371;DHT22;17164;48.590;11.410;2022-09-03T18:03:55;18.00;99.90
30371;DHT22;17164;48.590;11.410;2022-09-03T18:06:34;17.90;99.90
30371;DHT22;17164;48.590;11.410;2022-09-03T18:09:11;17.80;99.90
30371;DHT22;17164;48.590;11.410;2022-09-03T18:12:42;17.70;99.90
30371;DHT22;17164;48.590;11.410;2022-09-03T18:14:49;17.60;99.90
30371;DHT22;17164;48.590;11.410;2022-09-03T18:20:08;17.70;99.90
30371;DHT22;17164;48.590;11.410;2022-09-03T18:25:43;17.70;99.90
30371;DHT22;17164;48.590;11.410;2022-09-03T18:28:44;17.60;99.90
30371;DHT22;17164;48.590;11.410;2022-09-03T18:31:29;17.50;99.90
30371;DHT22;17164;48.590;11.410;2022-09-03T18:34:13;17.50;99.90
30371;DHT22;17164;48.590;11.410;2022-09-03T18:36:58;17.40;99.90
30371;DHT22;17164;48.590;11.410;2022-09-03T18:39:45;17.40;99.90
30371;DHT22;17164;48.590;11.410;2022-09-03T18:42:55;17.30;99.90
30371;DHT22;17164;48.590;11.410;2022-09-03T18:46:09;17.30;99.90
30371;DHT22;17164;48.590;11.410;2022-09-03T18:49:06;17.30;99.90
30371;DHT22;17164;48.590;11.410;2022-09-03T18:52:14;17.30;99.90
30371;DHT22;17164;48.590;11.410;2022-09-03T18:55:21;17.30;99.90
30371;DHT22;17164;48.590;11.410;2022-09-03T19:01:39;17.30;99.90
30371;DHT22;17164;48.590;11.410;2022-09-03T19:13:38;16.90;99.90
30371;DHT22;17164;48.590;11.410;2022-09-03T19:22:33;16.70;99.90
30371;DHT22;17164;48.590;11.410;2022-09-03T19:25:18;16.70;99.90
30371;DHT22;17164;48.590;11.410;2022-09-03T19:28:16;16.70;99.90
30371;DHT22;17164;48.590;11.410;2022-09-03T19:31:26;16.70;99.90
30371;DHT22;17164;48.590;11.410;2022-09-03T19:37:18;16.70;99.90
30371;DHT22;17164;48.590;11.410;2022-09-03T19:46:21;16.60;99.90
30371;DHT22;17164;48.590;11.410;2022-09-03T19:52:36;16.50;99.90
30371;DHT22;17164;48.590;11.410;2022-09-03T19:55:29;16.50;99.90
30371;DHT22;17164;48.590;11.410;2022-09-03T19:58:18;16.50;99.90
30371;DHT22;17164;48.590;11.410;2022-09-03T20:01:03;16.50;99.90
30371;DHT22;17164;48.590;11.410;2022-09-03T20:03:48;16.40;99.90
30371;DHT22;17164;48.590;11.410;2022-09-03T20:06:34;16.30;99.90
30371;DHT22;17164;48.590;11.410;2022-09-03T20:09:21;16.30;99.90
30371;DHT22;17164;48.590;11.410;2022-09-03T20:12:07;16.20;99.90
30371;DHT22;17164;48.590;11.410;2022-09-03T20:14:34;16.20;99.90
30371;DHT22;17164;48.590;11.410;2022-09-03T20:17:22;16.10;99.90
30371;DHT22;17164;48.590;11.410;2022-09-03T20:31:07;16.10;99.90
30371;DHT22;17164;48.590;11.410;2022-09-03T20:42:17;15.80;99.90
30371;DHT22;17164;48.590;11.410;2022-09-03T20:45:01;15.70;99.90
30371;DHT22;17164;48.590;11.410;2022-09-03T20:53:02;15.70;99.90
30371;DHT22;17164;48.590;11.410;2022-09-03T20:55:41;15.70;99.90
30371;DHT22;17164;48.590;11.410;2022-09-03T20:58:22;15.70;99.90
30371;DHT22;17164;48.590;11.410;2022-09-03T21:01:09;15.70;99.90